Time;durP1;ratioP1;P1;durP2;ratioP2;P2;SDS_P1;SDS_P2;PMS_P1;PMS_P2;Temp;Humidity;BMP_temperature;BMP_pressure;BME280_temperature;BME280_humidity;BME280_pressure;Samples;Min_cycle;Max_cycle;Signal;HPM_P1;HPM_P2
2023/03/11 00:01:48;;;;;;;96.85;47.70;;;;;;;;;;4997430;28;20427;-87
2023/03/11 00:04:33;;;;;;;66.25;36.45;;;;;;;;;;4982428;28;20480;-82
2023/03/11 00:07:19;;;;;;;70.95;35.90;;;;;;;;;;4997053;28;20054;-85
2023/03/11 00:10:06;;;;;;;58.92;31.75;;;;;;;;;;4997320;28;20046;-86
2023/03/11 00:12:51;;;;;;;60.35;29.85;;;;;;;;;;4982743;28;20038;-86
2023/03/11 00:15:37;;;;;;;42.33;22.88;;;;;;;;;;4982468;28;20034;-86
2023/03/11 00:18:34;;;;;;;33.30;18.20;;;;;;;;;;4996346;28;20416;-88
2023/03/11 00:21:20;;;;;;;26.35;14.52;;;;;;;;;;4974162;28;20052;-88
2023/03/11 00:24:06;;;;;;;30.00;16.30;;;;;;;;;;4988458;28;20054;-89
2023/03/11 00:26:51;;;;;;;26.58;15.02;;;;;;;;;;4982048;28;20050;-88
2023/03/11 00:29:39;;;;;;;24.38;13.82;;;;;;;;;;4988600;28;20046;-86
2023/03/11 00:32:25;;;;;;;23.27;13.13;;;;;;;;;;4975191;28;20046;-88
2023/03/11 00:35:25;;;;;;;17.85;10.65;;;;;;;;;;4988439;28;20414;-88
2023/03/11 00:38:14;;;;;;;24.08;12.98;;;;;;;;;;4974472;28;20042;-85
2023/03/11 00:41:00;;;;;;;24.90;13.85;;;;;;;;;;4974599;28;20408;-87
2023/03/11 00:43:50;;;;;;;35.55;20.00;;;;;;;;;;4995812;28;20050;-87
2023/03/11 00:46:35;;;;;;;36.53;21.48;;;;;;;;;;4981679;28;20393;-87
2023/03/11 00:49:21;;;;;;;34.58;21.13;;;;;;;;;;4973455;28;20062;-86
2023/03/11 00:52:06;;;;;;;34.03;19.55;;;;;;;;;;4985716;28;20046;-86
2023/03/11 00:54:52;;;;;;;26.35;16.75;;;;;;;;;;4993957;28;20042;-87
2023/03/11 00:57:38;;;;;;;26.33;15.77;;;;;;;;;;4972346;28;20543;-87
2023/03/11 01:00:26;;;;;;;33.30;14.52;;;;;;;;;;4973019;28;20042;-86
2023/03/11 01:03:12;;;;;;;28.55;13.75;;;;;;;;;;4995368;28;20042;-87
2023/03/11 01:05:57;;;;;;;28.02;12.73;;;;;;;;;;4987362;28;20043;-81
2023/03/11 01:08:43;;;;;;;28.98;12.55;;;;;;;;;;4988225;28;20380;-85
2023/03/11 01:11:28;;;;;;;29.73;13.45;;;;;;;;;;4973969;28;20038;-85
2023/03/11 01:14:13;;;;;;;37.63;15.05;;;;;;;;;;4995972;28;20046;-85
2023/03/11 01:16:59;;;;;;;16.92;9.52;;;;;;;;;;4986569;28;20046;-86
2023/03/11 01:19:44;;;;;;;22.33;9.77;;;;;;;;;;4995602;28;20047;-86
2023/03/11 01:22:30;;;;;;;20.45;11.05;;;;;;;;;;4973874;28;20038;-86
2023/03/11 01:25:18;;;;;;;26.15;13.18;;;;;;;;;;4987694;28;20043;-86
2023/03/11 01:28:07;;;;;;;32.85;17.23;;;;;;;;;;4995294;28;20047;-86
2023/03/11 01:30:52;;;;;;;34.75;18.52;;;;;;;;;;4987664;28;20046;-86
2023/03/11 01:33:39;;;;;;;33.00;18.67;;;;;;;;;;4987111;28;20054;-86
2023/03/11 01:36:25;;;;;;;34.42;19.25;;;;;;;;;;4995051;28;20038;-86
2023/03/11 01:39:10;;;;;;;38.58;19.60;;;;;;;;;;4987509;28;20392;-86
2023/03/11 01:41:56;;;;;;;34.05;18.13;;;;;;;;;;4986900;28;20500;-86
2023/03/11 01:44:41;;;;;;;35.17;18.90;;;;;;;;;;4983733;28;20484;-86
2023/03/11 01:47:37;;;;;;;33.75;20.05;;;;;;;;;;4973327;28;20046;-85
2023/03/11 01:50:26;;;;;;;34.05;19.00;;;;;;;;;;4995496;28;20042;-85
2023/03/11 01:53:12;;;;;;;42.10;25.33;;;;;;;;;;4986957;28;20484;-85
2023/03/11 01:56:02;;;;;;;40.40;23.25;;;;;;;;;;4973363;28;20030;-84
2023/03/11 01:58:52;;;;;;;31.50;18.05;;;;;;;;;;4973365;28;20046;-85
2023/03/11 02:01:44;;;;;;;29.88;18.40;;;;;;;;;;4973245;28;20054;-85
2023/03/11 02:04:33;;;;;;;43.67;25.42;;;;;;;;;;4986951;28;20054;-86
2023/03/11 02:07:18;;;;;;;50.85;26.60;;;;;;;;;;4972802;28;20046;-85
2023/03/11 02:10:06;;;;;;;33.63;20.45;;;;;;;;;;4986637;28;20046;-84
2023/03/11 02:12:52;;;;;;;45.95;24.40;;;;;;;;;;4986570;28;20046;-85
2023/03/11 02:15:39;;;;;;;41.03;22.38;;;;;;;;;;4980117;28;20408;-85
2023/03/11 02:18:25;;;;;;;26.70;16.05;;;;;;;;;;4986514;28;20038;-85
2023/03/11 02:21:23;;;;;;;26.48;13.63;;;;;;;;;;4973142;28;20038;-85
2023/03/11 02:24:29;;;;;;;17.17;10.35;;;;;;;;;;4986377;28;20038;-85
2023/03/11 02:27:18;;;;;;;11.98;7.05;;;;;;;;;;4986370;28;20038;-85
2023/03/11 02:30:06;;;;;;;9.35;5.68;;;;;;;;;;4986294;28;20050;-85
2023/03/11 02:32:55;;;;;;;8.30;4.97;;;;;;;;;;4986253;28;20046;-85
2023/03/11 02:35:41;;;;;;;13.77;6.63;;;;;;;;;;4986039;28;20504;-85
2023/03/11 02:38:26;;;;;;;9.38;6.20;;;;;;;;;;4994337;28;20405;-85
2023/03/11 02:41:12;;;;;;;9.65;5.45;;;;;;;;;;4972692;28;20042;-85
2023/03/11 02:43:59;;;;;;;7.15;4.95;;;;;;;;;;4971290;28;20042;-85
2023/03/11 02:46:45;;;;;;;7.55;5.30;;;;;;;;;;4986266;28;20046;-85
2023/03/11 02:49:31;;;;;;;14.45;7.88;;;;;;;;;;4986285;28;20046;-85
2023/03/11 02:52:16;;;;;;;9.85;6.38;;;;;;;;;;4979584;28;20489;-85
2023/03/11 02:55:03;;;;;;;8.75;4.75;;;;;;;;;;4994352;28;20038;-85
2023/03/11 02:57:49;;;;;;;9.48;5.80;;;;;;;;;;4986094;28;20042;-85
2023/03/11 03:00:35;;;;;;;14.00;6.95;;;;;;;;;;4986050;28;20050;-85
2023/03/11 03:03:24;;;;;;;11.48;6.93;;;;;;;;;;4985928;28;20050;-85
2023/03/11 03:06:10;;;;;;;13.90;6.60;;;;;;;;;;4994280;28;20050;-85
2023/03/11 03:08:56;;;;;;;14.27;7.57;;;;;;;;;;4986204;28;20042;-85
2023/03/11 03:11:41;;;;;;;11.07;6.70;;;;;;;;;;4994072;28;20050;-85
2023/03/11 03:14:27;;;;;;;25.52;14.55;;;;;;;;;;4994400;28;20042;-84
2023/03/11 03:17:13;;;;;;;11.38;6.95;;;;;;;;;;4993844;28;20400;-85
2023/03/11 03:19:58;;;;;;;12.38;6.60;;;;;;;;;;4989074;28;20488;-85
2023/03/11 03:22:44;;;;;;;31.02;18.02;;;;;;;;;;4990021;28;20042;-85
2023/03/11 03:25:31;;;;;;;18.77;11.77;;;;;;;;;;4989500;28;20046;-84
2023/03/11 03:28:20;;;;;;;10.93;6.93;;;;;;;;;;4989539;28;20046;-84
2023/03/11 03:31:07;;;;;;;7.80;5.00;;;;;;;;;;4976129;28;20046;-84
2023/03/11 03:33:53;;;;;;;9.13;4.60;;;;;;;;;;4989316;28;20047;-85
2023/03/11 03:36:39;;;;;;;9.85;4.78;;;;;;;;;;4997289;28;20038;-85
2023/03/11 03:39:24;;;;;;;8.75;5.32;;;;;;;;;;4975728;28;20042;-85
2023/03/11 03:42:10;;;;;;;6.70;4.53;;;;;;;;;;4989155;28;20396;-84
2023/03/11 03:44:58;;;;;;;10.80;6.70;;;;;;;;;;4985064;28;20400;-84
2023/03/11 03:47:44;;;;;;;12.48;6.93;;;;;;;;;;4989068;28;20038;-84
2023/03/11 03:50:29;;;;;;;12.82;8.05;;;;;;;;;;4997893;28;20050;-84
2023/03/11 03:53:15;;;;;;;13.63;8.88;;;;;;;;;;4988849;28;20476;-84
2023/03/11 03:56:12;;;;;;;16.73;9.65;;;;;;;;;;4989073;28;20476;-84
2023/03/11 03:58:57;;;;;;;12.68;8.73;;;;;;;;;;4997057;28;20046;-84
2023/03/11 04:01:47;;;;;;;17.33;9.30;;;;;;;;;;4988876;28;20050;-84
2023/03/11 04:04:32;;;;;;;16.75;10.10;;;;;;;;;;4988961;28;20488;-84
2023/03/11 04:07:18;;;;;;;15.73;9.80;;;;;;;;;;4988705;28;20046;-84
2023/03/11 04:10:04;;;;;;;15.35;9.18;;;;;;;;;;4996851;28;20046;-85
2023/03/11 04:12:51;;;;;;;17.67;9.85;;;;;;;;;;4996929;28;20046;-85
2023/03/11 04:15:38;;;;;;;16.83;8.75;;;;;;;;;;4988426;28;20046;-84
2023/03/11 04:18:23;;;;;;;17.52;9.60;;;;;;;;;;4975073;28;20046;-84
2023/03/11 04:21:09;;;;;;;19.20;9.45;;;;;;;;;;4996931;28;20050;-80
2023/03/11 04:23:55;;;;;;;20.95;10.27;;;;;;;;;;4988650;28;20046;-80
2023/03/11 04:26:46;;;;;;;15.60;8.48;;;;;;;;;;4976041;28;20396;-85
2023/03/11 04:29:34;;;;;;;12.27;6.10;;;;;;;;;;4988236;28;20492;-85
2023/03/11 04:32:21;;;;;;;6.18;4.43;;;;;;;;;;4988708;28;20050;-85
2023/03/11 04:35:08;;;;;;;12.25;6.18;;;;;;;;;;4988647;28;20396;-86
2023/03/11 04:37:53;;;;;;;10.32;6.65;;;;;;;;;;4988070;28;20039;-85
2023/03/11 04:40:40;;;;;;;7.60;5.07;;;;;;;;;;4988361;28;20050;-85
2023/03/11 04:43:25;;;;;;;8.40;4.35;;;;;;;;;;4987948;28;20046;-85
2023/03/11 04:46:13;;;;;;;8.73;4.20;;;;;;;;;;4988079;28;20046;-85
2023/03/11 04:49:00;;;;;;;5.47;3.85;;;;;;;;;;4974685;28;20050;-86
2023/03/11 04:51:45;;;;;;;10.45;6.45;;;;;;;;;;4988553;28;20046;-85
2023/03/11 04:54:33;;;;;;;9.50;6.75;;;;;;;;;;4974974;28;20043;-85
2023/03/11 04:57:19;;;;;;;8.50;6.05;;;;;;;;;;4995750;28;20039;-85
2023/03/11 05:00:11;;;;;;;8.93;6.28;;;;;;;;;;4987876;28;20043;-85
2023/03/11 05:02:58;;;;;;;9.32;5.47;;;;;;;;;;4974413;28;20046;-86
2023/03/11 05:05:44;;;;;;;16.63;9.18;;;;;;;;;;4988073;28;20050;-85
2023/03/11 05:08:30;;;;;;;13.95;7.85;;;;;;;;;;4987701;28;20046;-85
2023/03/11 05:11:15;;;;;;;21.50;11.27;;;;;;;;;;4973633;28;20042;-86
2023/03/11 05:14:03;;;;;;;19.52;10.60;;;;;;;;;;4988183;28;20057;-85
2023/03/11 05:16:48;;;;;;;37.08;20.05;;;;;;;;;;4987325;28;20046;-85
2023/03/11 05:19:33;;;;;;;33.03;18.65;;;;;;;;;;4987489;28;20392;-85
2023/03/11 05:22:25;;;;;;;29.17;16.88;;;;;;;;;;4975066;28;20054;-85
2023/03/11 05:25:11;;;;;;;35.20;17.25;;;;;;;;;;4974000;28;20046;-85
2023/03/11 05:27:56;;;;;;;27.45;16.45;;;;;;;;;;4987327;28;20042;-85
2023/03/11 05:30:41;;;;;;;30.42;15.95;;;;;;;;;;4995489;28;20476;-84
2023/03/11 05:33:33;;;;;;;30.13;16.73;;;;;;;;;;4987278;28;20050;-86
2023/03/11 05:36:22;;;;;;;24.80;14.70;;;;;;;;;;4987162;28;20042;-87
2023/03/11 05:39:08;;;;;;;21.63;15.05;;;;;;;;;;4973857;28;20038;-87
2023/03/11 05:41:57;;;;;;;20.92;13.93;;;;;;;;;;4973833;28;20042;-87
2023/03/11 05:44:51;;;;;;;53.72;30.40;;;;;;;;;;4982946;28;20062;-87
2023/03/11 05:47:36;;;;;;;43.90;28.52;;;;;;;;;;4987323;28;20050;-82
2023/03/11 05:50:22;;;;;;;39.45;25.25;;;;;;;;;;4987272;28;20046;-83
2023/03/11 05:53:09;;;;;;;35.33;22.08;;;;;;;;;;4987112;28;20042;-83
2023/03/11 05:55:59;;;;;;;28.65;19.35;;;;;;;;;;4986799;28;20054;-82
2023/03/11 05:58:47;;;;;;;32.13;20.92;;;;;;;;;;4998834;28;20050;-82
2023/03/11 06:01:33;;;;;;;47.58;25.83;;;;;;;;;;4991631;28;20042;-83
2023/03/11 06:04:19;;;;;;;76.53;35.42;;;;;;;;;;4999294;28;20038;-81
2023/03/11 06:07:04;;;;;;;53.13;28.60;;;;;;;;;;4997789;28;20046;-81
2023/03/11 06:09:52;;;;;;;48.80;28.20;;;;;;;;;;4988609;28;20396;-81
2023/03/11 06:12:38;;;;;;;57.80;31.88;;;;;;;;;;4995846;28;20469;-81
2023/03/11 06:15:37;;;;;;;45.53;25.42;;;;;;;;;;4995616;28;20046;-81
2023/03/11 06:18:25;;;;;;;28.17;18.00;;;;;;;;;;4986977;28;20042;-80
2023/03/11 06:21:17;;;;;;;29.00;14.73;;;;;;;;;;4986334;28;20058;-81
2023/03/11 06:24:01;;;;;;;43.88;22.70;;;;;;;;;;4972785;28;20050;-81
2023/03/11 06:26:51;;;;;;;35.22;19.48;;;;;;;;;;4986545;28;20400;-82
2023/03/11 06:29:37;;;;;;;31.00;17.42;;;;;;;;;;4986511;28;20416;-83
2023/03/11 06:32:22;;;;;;;26.02;18.05;;;;;;;;;;4986586;28;20046;-85
2023/03/11 06:35:09;;;;;;;24.88;15.95;;;;;;;;;;4986829;28;20046;-85
2023/03/11 06:37:54;;;;;;;19.17;13.15;;;;;;;;;;4995122;28;20038;-84
2023/03/11 06:40:40;;;;;;;22.98;14.45;;;;;;;;;;4980297;28;20042;-84
2023/03/11 06:43:26;;;;;;;24.90;14.35;;;;;;;;;;4994353;28;20046;-86
2023/03/11 06:46:16;;;;;;;23.42;13.43;;;;;;;;;;4986418;28;20042;-86
2023/03/11 06:49:02;;;;;;;18.63;10.70;;;;;;;;;;4986072;28;20038;-82
2023/03/11 06:51:55;;;;;;;19.63;9.57;;;;;;;;;;4973104;28;20042;-86
2023/03/11 06:54:43;;;;;;;16.55;10.38;;;;;;;;;;4981029;28;20050;-85
2023/03/11 06:57:30;;;;;;;13.82;8.95;;;;;;;;;;4985761;28;20038;-83
2023/03/11 07:00:18;;;;;;;18.92;13.77;;;;;;;;;;4972882;28;20392;-83
2023/03/11 07:03:08;;;;;;;21.98;15.65;;;;;;;;;;4986276;28;20050;-82
2023/03/11 07:05:53;;;;;;;25.00;14.50;;;;;;;;;;4985954;28;20042;-85
2023/03/11 07:08:39;;;;;;;24.70;15.63;;;;;;;;;;4993773;28;20054;-85
2023/03/11 07:11:27;;;;;;;22.88;13.30;;;;;;;;;;4986601;28;20046;-84
2023/03/11 07:14:18;;;;;;;14.63;9.73;;;;;;;;;;4985726;28;20404;-81
2023/03/11 07:17:08;;;;;;;16.15;10.63;;;;;;;;;;4985861;28;20043;-83
2023/03/11 07:20:04;;;;;;;14.57;8.18;;;;;;;;;;4979720;28;20493;-81
2023/03/11 07:22:50;;;;;;;19.63;12.32;;;;;;;;;;4979677;28;20046;-81
2023/03/11 07:25:35;;;;;;;16.58;10.07;;;;;;;;;;4994202;28;20042;-82
2023/03/11 07:28:23;;;;;;;20.10;9.90;;;;;;;;;;4993093;28;20042;-83
2023/03/11 07:31:10;;;;;;;10.50;6.80;;;;;;;;;;4994131;28;20516;-85
2023/03/11 07:33:56;;;;;;;11.35;7.10;;;;;;;;;;4993789;28;20047;-80
2023/03/11 07:36:42;;;;;;;10.52;7.35;;;;;;;;;;4993186;28;20050;-81
2023/03/11 07:39:27;;;;;;;7.70;5.45;;;;;;;;;;4993780;28;20046;-82
2023/03/11 07:42:15;;;;;;;10.90;5.70;;;;;;;;;;4992895;28;20046;-84
2023/03/11 07:45:00;;;;;;;12.00;6.70;;;;;;;;;;4993906;28;20038;-80
2023/03/11 07:47:53;;;;;;;13.40;7.93;;;;;;;;;;4979109;28;20054;-81
2023/03/11 07:50:42;;;;;;;14.80;9.25;;;;;;;;;;4985815;28;20054;-82
2023/03/11 07:53:31;;;;;;;19.27;11.13;;;;;;;;;;4985372;28;20046;-80
2023/03/11 07:56:19;;;;;;;61.88;29.58;;;;;;;;;;4978241;28;20405;-80
2023/03/11 07:59:04;;;;;;;39.40;20.38;;;;;;;;;;4985526;28;20054;-81
2023/03/11 08:01:50;;;;;;;48.13;28.80;;;;;;;;;;4993570;28;20058;-82
2023/03/11 08:04:35;;;;;;;50.40;29.88;;;;;;;;;;4993850;28;20038;-78
2023/03/11 08:07:20;;;;;;;37.97;23.60;;;;;;;;;;4996622;28;20046;-78
2023/03/11 08:10:05;;;;;;;41.83;24.55;;;;;;;;;;4996592;28;20042;-78
2023/03/11 08:12:50;;;;;;;35.88;23.45;;;;;;;;;;4996555;28;20042;-78
2023/03/11 08:15:36;;;;;;;35.03;22.38;;;;;;;;;;4974309;28;20045;-78
2023/03/11 08:18:21;;;;;;;39.80;22.88;;;;;;;;;;4981847;28;20492;-78
2023/03/11 08:21:10;;;;;;;40.92;25.42;;;;;;;;;;4996211;28;20038;-78
2023/03/11 08:23:57;;;;;;;42.90;26.63;;;;;;;;;;4996322;28;20046;-78
2023/03/11 08:26:42;;;;;;;48.35;27.30;;;;;;;;;;4981343;28;20051;-78
2023/03/11 08:29:28;;;;;;;40.92;24.05;;;;;;;;;;4996201;28;20047;-78
2023/03/11 08:32:13;;;;;;;39.25;23.70;;;;;;;;;;4996651;28;20046;-78
2023/03/11 08:34:58;;;;;;;33.10;20.67;;;;;;;;;;4982262;28;20042;-77
2023/03/11 08:37:43;;;;;;;42.05;22.65;;;;;;;;;;4996020;28;20046;-78
2023/03/11 08:40:29;;;;;;;37.83;24.90;;;;;;;;;;4995733;28;20050;-79
2023/03/11 08:43:15;;;;;;;53.08;31.63;;;;;;;;;;4996437;28;20046;-78
2023/03/11 08:46:01;;;;;;;58.47;34.80;;;;;;;;;;4996634;28;20038;-78
2023/03/11 08:48:45;;;;;;;42.83;26.08;;;;;;;;;;4995952;28;20046;-79
2023/03/11 08:51:32;;;;;;;40.35;24.92;;;;;;;;;;4996104;28;20050;-79
2023/03/11 08:54:22;;;;;;;44.88;25.63;;;;;;;;;;4996210;28;20038;-79
2023/03/11 08:57:08;;;;;;;43.25;24.20;;;;;;;;;;4995918;28;20046;-79
2023/03/11 08:59:53;;;;;;;37.00;22.33;;;;;;;;;;4996037;28;20392;-79
2023/03/11 09:02:40;;;;;;;36.22;22.42;;;;;;;;;;4995728;28;20046;-78
2023/03/11 09:05:25;;;;;;;39.20;23.00;;;;;;;;;;4995321;28;20051;-78
2023/03/11 09:08:11;;;;;;;40.70;23.48;;;;;;;;;;4995898;28;20480;-78
2023/03/11 09:11:13;;;;;;;45.20;26.15;;;;;;;;;;4996096;28;20042;-80
2023/03/11 09:13:58;;;;;;;44.38;27.42;;;;;;;;;;4996642;28;20050;-79
2023/03/11 09:16:44;;;;;;;46.53;27.63;;;;;;;;;;4995983;28;20062;-77
2023/03/11 09:19:29;;;;;;;34.92;22.85;;;;;;;;;;4995873;28;20046;-77
2023/03/11 09:22:13;;;;;;;38.92;22.67;;;;;;;;;;4995547;28;20038;-77
2023/03/11 09:24:58;;;;;;;28.95;17.67;;;;;;;;;;4996057;28;20400;-78
2023/03/11 09:27:44;;;;;;;28.85;17.50;;;;;;;;;;4981100;28;20050;-78
2023/03/11 09:30:29;;;;;;;24.33;15.25;;;;;;;;;;4995609;28;20046;-78
2023/03/11 09:33:14;;;;;;;24.67;14.27;;;;;;;;;;4994757;28;20051;-78
2023/03/11 09:36:03;;;;;;;22.48;12.98;;;;;;;;;;4995662;28;20492;-78
2023/03/11 09:38:48;;;;;;;14.57;8.77;;;;;;;;;;4994982;28;20042;-78
2023/03/11 09:41:43;;;;;;;11.40;7.45;;;;;;;;;;4995007;28;20074;-78
2023/03/11 09:44:41;;;;;;;9.85;6.55;;;;;;;;;;4994929;28;20054;-78
2023/03/11 09:47:37;;;;;;;10.40;6.22;;;;;;;;;;4994620;28;20054;-78
2023/03/11 09:50:24;;;;;;;14.27;8.27;;;;;;;;;;4994512;28;20058;-78
2023/03/11 09:53:21;;;;;;;20.85;10.50;;;;;;;;;;4994952;28;20050;-81
2023/03/11 09:56:12;;;;;;;70.10;28.98;;;;;;;;;;4994327;28;20042;-82
2023/03/11 09:59:16;;;;;;;57.80;25.38;;;;;;;;;;4994956;28;20042;-83
2023/03/11 10:02:02;;;;;;;14.98;9.85;;;;;;;;;;4979673;28;20058;-82
2023/03/11 10:04:59;;;;;;;7.55;4.20;;;;;;;;;;4995092;28;20042;-82
2023/03/11 10:07:52;;;;;;;3.45;2.25;;;;;;;;;;4994308;28;20058;-82
2023/03/11 10:10:44;;;;;;;3.75;2.55;;;;;;;;;;4994449;28;20046;-82
2023/03/11 10:13:38;;;;;;;12.80;5.93;;;;;;;;;;4986460;28;20042;-82
2023/03/11 10:16:29;;;;;;;;;;;;;;;;;;4979936;28;20054;-82
2023/03/11 10:19:28;;;;;;;14.48;6.35;;;;;;;;;;4979995;28;19918;-83
2023/03/11 10:22:30;;;;;;;27.10;13.90;;;;;;;;;;4994554;28;20485;-83
2023/03/11 10:25:18;;;;;;;11.60;6.30;;;;;;;;;;4979823;28;20046;-86
2023/03/11 10:28:13;;;;;;;15.07;8.10;;;;;;;;;;4985873;28;20050;-83
2023/03/11 10:31:11;;;;;;;14.23;5.63;;;;;;;;;;4994626;28;20500;-84
2023/03/11 10:34:05;;;;;;;15.50;7.72;;;;;;;;;;4994665;28;20050;-82
2023/03/11 10:37:23;;;;;;;9.88;4.20;;;;;;;;;;4994005;28;20038;-82
2023/03/11 10:40:35;;;;;;;6.60;3.10;;;;;;;;;;4994582;28;20050;-83
2023/03/11 10:43:29;;;;;;;16.98;8.30;;;;;;;;;;5001030;28;20448;-84
2023/03/11 10:46:22;;;;;;;25.50;11.80;;;;;;;;;;4994182;28;20035;-82
2023/03/11 10:49:15;;;;;;;39.00;19.75;;;;;;;;;;4993973;28;20043;-83
2023/03/11 10:52:02;;;;;;;24.05;10.88;;;;;;;;;;4993647;28;20042;-82
2023/03/11 10:55:01;;;;;;;23.17;11.73;;;;;;;;;;4993519;28;20050;-82
2023/03/11 10:57:46;;;;;;;25.60;12.60;;;;;;;;;;4993600;28;20046;-82
2023/03/11 11:00:32;;;;;;;26.77;12.65;;;;;;;;;;4994107;28;20046;-83
2023/03/11 11:03:22;;;;;;;16.73;8.40;;;;;;;;;;4992666;28;20038;-85
2023/03/11 11:06:18;;;;;;;28.98;12.95;;;;;;;;;;4991942;28;20404;-82
2023/03/11 11:09:13;;;;;;;20.00;9.27;;;;;;;;;;4976287;28;20050;-80
2023/03/11 11:12:02;;;;;;;31.73;15.13;;;;;;;;;;4992014;28;20448;-80
2023/03/11 11:14:50;;;;;;;11.23;6.00;;;;;;;;;;4992436;28;20481;-80
2023/03/11 11:17:35;;;;;;;23.60;12.65;;;;;;;;;;4992249;28;20047;-80
2023/03/11 11:20:23;;;;;;;14.50;7.75;;;;;;;;;;4993682;28;20126;-80
2023/03/11 11:23:26;;;;;;;68.20;31.20;;;;;;;;;;4994336;28;20099;-80
2023/03/11 11:26:20;;;;;;;33.70;13.88;;;;;;;;;;4994346;28;20039;-79
2023/03/11 11:29:08;;;;;;;27.33;14.93;;;;;;;;;;4993996;28;20404;-79
2023/03/11 11:32:17;;;;;;;13.82;6.32;;;;;;;;;;4993942;28;20042;-79
2023/03/11 11:35:10;;;;;;;20.92;12.02;;;;;;;;;;4993885;28;20043;-80
2023/03/11 11:38:01;;;;;;;10.75;5.70;;;;;;;;;;4978856;28;20034;-79
2023/03/11 11:40:46;;;;;;;32.30;17.35;;;;;;;;;;4996388;28;20046;-79
2023/03/11 11:43:45;;;;;;;24.15;12.25;;;;;;;;;;4997247;28;20046;-80
2023/03/11 11:46:37;;;;;;;19.85;10.13;;;;;;;;;;4997084;28;20043;-80
2023/03/11 11:49:26;;;;;;;10.55;5.53;;;;;;;;;;4997340;28;20061;-79
2023/03/11 11:52:29;;;;;;;8.00;3.88;;;;;;;;;;4997166;28;20046;-79
2023/03/11 11:55:23;;;;;;;9.65;5.22;;;;;;;;;;4997596;28;20043;-79
2023/03/11 11:58:11;;;;;;;11.43;6.82;;;;;;;;;;4996748;28;20046;-79
2023/03/11 12:01:06;;;;;;;7.55;3.80;;;;;;;;;;4997103;28;20046;-80
2023/03/11 12:04:23;;;;;;;3.72;1.90;;;;;;;;;;4997490;28;20054;-79
2023/03/11 12:07:20;;;;;;;3.22;1.50;;;;;;;;;;4996877;28;20043;-79
2023/03/11 12:10:13;;;;;;;8.60;4.05;;;;;;;;;;4996789;28;20396;-81
2023/03/11 12:13:20;;;;;;;7.47;3.45;;;;;;;;;;4997167;28;20038;-80
2023/03/11 12:16:21;;;;;;;8.90;4.22;;;;;;;;;;4997945;28;20043;-78
2023/03/11 12:19:09;;;;;;;4.65;2.70;;;;;;;;;;4996358;28;20046;-79
2023/03/11 12:22:07;;;;;;;6.75;1.70;;;;;;;;;;4998458;28;20046;-79
2023/03/11 12:25:26;;;;;;;5.18;2.42;;;;;;;;;;4996523;28;20042;-79
2023/03/11 12:29:05;;;;;;;13.07;4.93;;;;;;;;;;5003123;28;20054;-78
2023/03/11 12:31:51;;;;;;;4.05;2.83;;;;;;;;;;4899221;29;20064;-78
2023/03/11 12:34:35;;;;;;;7.03;3.10;;;;;;;;;;4996254;28;20058;-77
2023/03/11 12:37:22;;;;;;;5.43;2.67;;;;;;;;;;4996465;28;20046;-84
2023/03/11 12:40:46;;;;;;;7.07;4.57;;;;;;;;;;4974789;28;20050;-77
2023/03/11 12:43:34;;;;;;;8.30;3.22;;;;;;;;;;5002042;28;20054;-88
2023/03/11 12:46:20;;;;;;;6.28;3.50;;;;;;;;;;4995852;28;20042;-86
2023/03/11 12:49:12;;;;;;;14.68;5.75;;;;;;;;;;4996453;28;20042;-82
2023/03/11 12:52:07;;;;;;;6.65;2.90;;;;;;;;;;4987710;28;20046;-81
2023/03/11 12:54:59;;;;;;;8.60;4.70;;;;;;;;;;4996436;28;20050;-87
2023/03/11 12:57:45;;;;;;;3.55;1.60;;;;;;;;;;4981773;28;20047;-81
2023/03/11 13:00:58;;;;;;;6.45;3.42;;;;;;;;;;4989383;28;20038;-89
2023/03/11 13:04:13;;;;;;;5.93;3.03;;;;;;;;;;4974292;28;20043;-87
2023/03/11 13:07:21;;;;;;;10.50;4.68;;;;;;;;;;4974077;28;20396;-88
2023/03/11 13:10:34;;;;;;;11.25;5.15;;;;;;;;;;4983924;28;20054;-92
2023/03/11 13:13:39;;;;;;;6.53;4.07;;;;;;;;;;4982527;28;20050;-84
2023/03/11 13:16:28;;;;;;;10.65;4.07;;;;;;;;;;4980992;28;20046;-85
2023/03/11 13:19:28;;;;;;;5.00;3.03;;;;;;;;;;4995403;28;20038;-84
2023/03/11 13:23:06;;;;;;;7.90;3.72;;;;;;;;;;4981505;28;20034;-82
2023/03/11 13:25:52;;;;;;;5.15;2.67;;;;;;;;;;4985279;28;20504;-81
2023/03/11 13:28:51;;;;;;;17.52;3.88;;;;;;;;;;4996104;28;20050;-84
2023/03/11 13:31:54;;;;;;;5.13;3.40;;;;;;;;;;4995460;28;20058;-79
2023/03/11 13:35:08;;;;;;;19.55;8.90;;;;;;;;;;4995106;28;20042;-82
2023/03/11 13:38:31;;;;;;;13.80;6.05;;;;;;;;;;4994223;28;20481;-80
2023/03/11 13:41:28;;;;;;;20.88;8.85;;;;;;;;;;4995688;28;20050;-79
2023/03/11 13:44:28;;;;;;;17.95;10.48;;;;;;;;;;4994885;28;20058;-81
2023/03/11 13:47:16;;;;;;;17.48;8.77;;;;;;;;;;4980021;28;20480;-81
2023/03/11 13:50:12;;;;;;;26.20;7.80;;;;;;;;;;4994654;28;20038;-80
2023/03/11 13:53:02;;;;;;;13.57;5.80;;;;;;;;;;4995001;28;20034;-80
2023/03/11 13:55:48;;;;;;;22.38;8.27;;;;;;;;;;4994857;28;20042;-80
2023/03/11 13:58:33;;;;;;;18.58;7.85;;;;;;;;;;4994264;28;20046;-80
2023/03/11 14:01:19;;;;;;;13.15;7.15;;;;;;;;;;4994779;28;20046;-83
2023/03/11 14:04:10;;;;;;;34.80;18.20;;;;;;;;;;4994191;28;20038;-84
2023/03/11 14:06:55;;;;;;;14.77;8.32;;;;;;;;;;4995163;28;20401;-83
2023/03/11 14:09:41;;;;;;;21.77;12.27;;;;;;;;;;4994342;28;20046;-83
2023/03/11 14:12:30;;;;;;;14.50;8.07;;;;;;;;;;4994289;28;20038;-81
2023/03/11 14:15:25;;;;;;;65.30;31.10;;;;;;;;;;4995065;28;20038;-81
2023/03/11 14:18:23;;;;;;;17.88;8.80;;;;;;;;;;4994712;28;20050;-81
2023/03/11 14:21:20;;;;;;;58.30;24.15;;;;;;;;;;4993515;28;20050;-82
2023/03/11 14:24:05;;;;;;;29.40;16.73;;;;;;;;;;4993692;28;20046;-81
2023/03/11 14:26:55;;;;;;;26.58;16.92;;;;;;;;;;4994299;28;20050;-82
2023/03/11 14:29:42;;;;;;;40.40;26.35;;;;;;;;;;4992993;28;20447;-81
2023/03/11 14:32:31;;;;;;;19.65;12.15;;;;;;;;;;4994264;28;20054;-81
2023/03/11 14:35:20;;;;;;;20.42;11.50;;;;;;;;;;4985914;28;20488;-81
2023/03/11 14:38:19;;;;;;;17.02;10.40;;;;;;;;;;4992926;28;20042;-81
2023/03/11 14:41:05;;;;;;;15.20;9.07;;;;;;;;;;4992504;28;20047;-81
2023/03/11 14:43:52;;;;;;;65.47;27.52;;;;;;;;;;4993179;28;20043;-81
2023/03/11 14:46:37;;;;;;;102.72;44.97;;;;;;;;;;4993634;28;20054;-82
2023/03/11 14:49:23;;;;;;;34.15;20.00;;;;;;;;;;4994214;28;20042;-81
2023/03/11 14:52:24;;;;;;;16.30;10.77;;;;;;;;;;4993952;28;20050;-82
2023/03/11 14:55:16;;;;;;;20.75;14.63;;;;;;;;;;4994508;28;20038;-82
2023/03/11 14:58:03;;;;;;;33.60;17.50;;;;;;;;;;4994249;28;20050;-82
2023/03/11 15:01:14;;;;;;;18.77;9.38;;;;;;;;;;4994055;28;20054;-82
2023/03/11 15:04:32;;;;;;;20.13;10.88;;;;;;;;;;4993836;28;20050;-81
2023/03/11 15:07:18;;;;;;;20.73;8.68;;;;;;;;;;5000733;28;20046;-82
2023/03/11 15:10:11;;;;;;;10.75;5.68;;;;;;;;;;4994199;28;20050;-81
2023/03/11 15:13:05;;;;;;;10.95;6.95;;;;;;;;;;4994098;28;20050;-82
2023/03/11 15:16:03;;;;;;;13.73;7.28;;;;;;;;;;4997002;28;20054;-81
2023/03/11 15:18:48;;;;;;;14.18;7.90;;;;;;;;;;4997735;28;20042;-81
2023/03/11 15:21:34;;;;;;;16.92;8.13;;;;;;;;;;4997797;28;20054;-81
2023/03/11 15:24:25;;;;;;;10.80;6.55;;;;;;;;;;4997497;28;20042;-81
2023/03/11 15:27:25;;;;;;;17.77;8.35;;;;;;;;;;4997909;28;20484;-81
2023/03/11 15:30:40;;;;;;;19.75;9.45;;;;;;;;;;4997620;28;20046;-82
2023/03/11 15:33:32;;;;;;;20.75;12.48;;;;;;;;;;4988263;28;20058;-81
2023/03/11 15:36:38;;;;;;;20.13;10.75;;;;;;;;;;4982976;28;20039;-82
2023/03/11 15:39:43;;;;;;;22.13;11.32;;;;;;;;;;4997389;28;20480;-81
2023/03/11 15:42:29;;;;;;;45.13;17.23;;;;;;;;;;4997611;28;20042;-81
2023/03/11 15:45:19;;;;;;;37.50;15.45;;;;;;;;;;4983955;28;20043;-81
2023/03/11 15:48:04;;;;;;;31.67;16.02;;;;;;;;;;4997353;28;20050;-81
2023/03/11 15:50:55;;;;;;;51.47;18.67;;;;;;;;;;4996906;28;20050;-82
2023/03/11 15:53:40;;;;;;;101.72;29.17;;;;;;;;;;4975661;28;20050;-83
2023/03/11 15:56:25;;;;;;;83.55;26.55;;;;;;;;;;4982208;28;20042;-83
2023/03/11 15:59:14;;;;;;;16.35;9.27;;;;;;;;;;4997163;28;20477;-81
2023/03/11 16:01:59;;;;;;;44.25;19.42;;;;;;;;;;4997311;28;20042;-81
2023/03/11 16:04:44;;;;;;;150.38;40.72;;;;;;;;;;4997062;28;20464;-83
2023/03/11 16:07:30;;;;;;;49.17;21.20;;;;;;;;;;4997297;28;20058;-82
2023/03/11 16:10:27;;;;;;;42.72;17.10;;;;;;;;;;4989099;28;20050;-84
2023/03/11 16:13:14;;;;;;;29.70;15.23;;;;;;;;;;4997065;28;20042;-84
2023/03/11 16:15:59;;;;;;;38.13;16.02;;;;;;;;;;4997323;28;20050;-83
2023/03/11 16:18:45;;;;;;;25.40;12.10;;;;;;;;;;4996595;28;20038;-82
2023/03/11 16:21:36;;;;;;;42.58;20.77;;;;;;;;;;4996791;28;20047;-84
2023/03/11 16:24:24;;;;;;;49.95;20.63;;;;;;;;;;4996896;28;20054;-83
2023/03/11 16:27:13;;;;;;;21.42;10.23;;;;;;;;;;4995955;28;20046;-84
2023/03/11 16:29:58;;;;;;;22.92;12.38;;;;;;;;;;4988533;28;20046;-84
2023/03/11 16:32:43;;;;;;;32.95;17.65;;;;;;;;;;4981616;28;20047;-84
2023/03/11 16:35:29;;;;;;;36.63;18.27;;;;;;;;;;4996314;28;20038;-84
2023/03/11 16:38:45;;;;;;;19.52;11.50;;;;;;;;;;4997028;28;20046;-84
2023/03/11 16:41:41;;;;;;;20.35;10.05;;;;;;;;;;5002810;28;20042;-81